Greymouth, New Zealand
Current Conditions -  °F | °C
As of 1:30 AM on Saturday 20 Dec 2014 (Local Time) from NZCH Reporting Station
Clear Clear  
Wind Chill: 16°   Ceiling: Unl
Heat Index: 16°   Visibility: 6mi
Dew Point: 15°   Wind: 1mph
Humidity: 94%   Direction: 30°NNE
Pressure: 29.8"   Gusts: NA
Location:  42.46°S, 171.21°E
Report Text: NZCH 191330Z AUTO 03001KT 9999 NCD 16/15 Q1009 NOSIG
Loading
Personal Weather Stations






























Interactive Weather Map New forecast layout! Learn more

10-Day Weather Forecast

Advertisements
Track Severe Weather on mobile